Arabia, CA

5:35 AM PST on February 27, 2015 (GMT -0800)
APRSWXNET Coachella CA US | Change Station
CLOSE
Current Station
Personal Weather Station
Location: Coachella, CA
Elevation: 110 ft
Nearby Weather Stations
Active Advisory: Wind Advisory

Elev 110 ft 33.67 °N, 116.15 °W | Updated 40 minutes ago

Clear
Clear
54 °F
Feels Like 54 °F
N
0
Wind Variable Wind from North
Gusts 1.0 mph

Today
High -- | Low -- °F
--% Chance of Precip.
Yesterday
High -- | Low -- °F
Precip. -- in
6:15 AM 5:39 PM
Waxing Gibbous, 68% visible
Pressure 29.71 in
Visibility 10.0 miles
Clouds Clear
Dew Point 41 °F
Humidity 62%
Rainfall 0.00 in
Snow Depth Not available.
UV 0 out of 12
Pollen 9.00 out of 12
Air Quality Not available.
Flu Activity Not available.
METAR KTRM 271252Z AUTO 28005KT 10SM CLR 16/07 A2970 RMK AO2 SLP059 T01560067 TSNO

More Conditions Fewer Conditions

Pressure 29.71 in
Visibility 10.0 miles
Clouds Clear
Dew Point 41 °F
Humidity 62%
Rainfall 0.00 in
Snow Depth Not available.
UV 0 out of 12
Pollen 9.00 out of 12
Air Quality Not available.
Flu Activity Not available.
METAR KTRM 271252Z AUTO 28005KT 10SM CLR 16/07 A2970 RMK AO2 SLP059 T01560067 TSNO

More Conditions Fewer Conditions

10-Day Weather Forecast

Almanac

Astronomy

Feb. 27, 2015 Rise Set
Actual Time
Civil Twilight
Nautical Twilight
Astronomical Twilight
Moon
Length of Visible Light
Length of Day
Tomorrow will be .
, % of the Moon is Illuminated

Today's Extremes

State Highs State Lows

Community

WunderPhotos

Upload Photos

1,800,673 photos uploaded!

WunderBlogs® & News

Nearby

Air Quality

  Air Quality AQ Index Pollutant
Not available.

Snow Depth

Station Depth Elevation

Earthquake Activity

City Distance Mag. Time & Date
Minimum magnitude displayed is 2.5.

Coastal Water Temperatures

Place Temperature

Nearby Weather Stations

Wind Advisory
Statement as of 2:45 AM PST on February 27, 2015

... Wind Advisory in effect from 6 PM this evening to 3 am PST
Sunday...

The National Weather Service in San Diego has issued a Wind
Advisory... which is in effect from 6 PM this evening to 3 am PST
Sunday.

* Winds... areas of west winds 25 to 35 mph with gusts to 55 mph.

* Timing... winds increasing late this afternoon with periods of
stronger winds for tonight into Saturday night... decreasing late
Saturday night.

* Location... strongest winds near Mountain Ridge tops and along Desert
Mountain slopes into adjacent desert areas.

* Visibility... locally reduced in blowing sand and dust in the
deserts.

* Impacts... driving of high profile vehicles will be hazardous.

Precautionary/preparedness actions...

A Wind Advisory means that winds of 35 mph are expected. Winds
this strong can make driving difficult... especially for high
profile vehicles. Use extra caution.



For a detailed map of the